Spring Lake, Minnesota
Current Conditions -  °F | °C
As of 4:13 AM on Friday 19 Dec 2014 (Local Time) from KFOZ Reporting Station
Light Snow Light Snow  
Wind Chill: 10°   Ceiling: 500
Heat Index: 19°   Visibility: 10mi
Dew Point: 18°   Wind: 7mph
Humidity: 93%   Direction: 170°S
Pressure: 30.18"   Gusts: NA
Location:  47.64°N, 93.87°W
Report Text: KFOZ 191013Z AUTO 17006KT 10SM -SN OVC005 M07/M08 A3018 RMK AO2
Loading
Personal Weather Stations






























Interactive Weather Map New forecast layout! Learn more

10-Day Weather Forecast

Advertisements
Track Severe Weather on mobile